Time;durP1;ratioP1;P1;durP2;ratioP2;P2;SDS_P1;SDS_P2;PMS_P1;PMS_P2;Temp;Humidity;BMP_temperature;BMP_pressure;BME280_temperature;BME280_humidity;BME280_pressure;Samples;Min_cycle;Max_cycle;Signal;HPM_P1;HPM_P2
2021/04/20 00:04:50;;;;;;;45.10;23.55;;;;;;;9.79;64.76;100694.19;10269611;28;20239;-73
2021/04/20 00:09:52;;;;;;;48.75;24.25;;;;;;;9.91;64.86;100690.66;10270530;28;21500;-73
2021/04/20 00:14:55;;;;;;;46.50;24.17;;;;;;;9.77;64.83;100686.28;10282437;28;20233;-73
2021/04/20 00:19:57;;;;;;;48.30;25.08;;;;;;;9.80;64.91;100677.16;10308981;28;20234;-73
2021/04/20 00:24:59;;;;;;;47.33;23.95;;;;;;;9.85;64.90;100678.53;10308773;28;20858;-74
2021/04/20 00:30:04;;;;;;;47.67;24.38;;;;;;;9.76;64.92;100671.13;10308892;28;20239;-74
2021/04/20 00:35:08;;;;;;;53.08;25.17;;;;;;;9.72;64.97;100673.19;10309016;28;20246;-73
2021/04/20 00:40:13;;;;;;;46.08;23.35;;;;;;;9.63;65.05;100673.88;10306600;28;20346;-73
2021/04/20 00:45:18;;;;;;;46.10;23.27;;;;;;;9.63;65.19;100667.66;10307706;28;20239;-74
2021/04/20 00:50:23;;;;;;;47.05;23.50;;;;;;;9.77;65.07;100666.63;10308002;28;20231;-72
2021/04/20 00:55:25;;;;;;;48.85;24.38;;;;;;;9.71;64.97;100671.47;10306012;28;20275;-74
2021/04/20 01:00:30;;;;;;;49.10;24.15;;;;;;;9.39;65.31;100671.13;10307777;28;20278;-74
2021/04/20 01:05:36;;;;;;;48.08;23.95;;;;;;;9.19;66.12;100666.34;10271186;28;21584;-76
2021/04/20 01:10:40;;;;;;;47.65;25.38;;;;;;;9.03;66.46;100666.53;10268867;28;20244;-72
2021/04/20 01:15:47;;;;;;;51.80;25.25;;;;;;;8.78;67.06;100660.22;10286654;28;20234;-73
2021/04/20 01:20:51;;;;;;;48.17;23.15;;;;;;;8.60;67.54;100665.00;10307642;28;20235;-74
2021/04/20 01:25:55;;;;;;;48.65;23.75;;;;;;;8.37;68.48;100655.84;10306561;28;21445;-73
2021/04/20 01:30:58;;;;;;;56.55;24.55;;;;;;;8.24;68.81;100662.13;10305278;28;20231;-73
2021/04/20 01:36:00;;;;;;;52.72;25.08;;;;;;;8.21;69.09;100654.31;10310265;28;20243;-74
2021/04/20 01:41:03;;;;;;;54.00;26.20;;;;;;;8.33;68.64;100654.31;10307781;28;20239;-74
2021/04/20 01:46:06;;;;;;;50.85;25.38;;;;;;;8.45;68.28;100657.13;10307893;28;21408;-74
2021/04/20 01:51:08;;;;;;;53.17;25.35;;;;;;;8.37;68.04;100654.97;10322121;28;20231;-75
2021/04/20 01:56:12;;;;;;;60.17;27.70;;;;;;;8.35;67.99;100649.72;10305908;28;20231;-74
2021/04/20 02:01:15;;;;;;;59.70;28.17;;;;;;;8.09;68.68;100651.47;10306260;28;20243;-76
2021/04/20 02:06:19;;;;;;;61.83;27.55;;;;;;;8.05;68.99;100654.44;10305860;28;20239;-74
2021/04/20 02:11:23;;;;;;;61.33;29.13;;;;;;;8.06;69.02;100654.34;10320944;28;20716;-74
2021/04/20 02:16:25;;;;;;;57.03;26.23;;;;;;;8.14;68.85;100652.00;10278742;28;20282;-74
2021/04/20 02:21:28;;;;;;;61.17;27.27;;;;;;;8.00;68.62;100649.41;10270550;28;20742;-74
2021/04/20 02:26:33;;;;;;;52.90;25.70;;;;;;;7.87;68.42;100640.47;10266292;28;20253;-74
2021/04/20 02:31:37;;;;;;;56.83;25.65;;;;;;;7.69;68.24;100654.09;10265189;28;20710;-74
2021/04/20 02:36:42;;;;;;;54.13;24.35;;;;;;;7.61;68.79;100647.53;10266527;28;20293;-74
2021/04/20 02:41:46;;;;;;;55.60;25.63;;;;;;;7.58;68.85;100651.25;10266037;28;20289;-74
2021/04/20 02:46:48;;;;;;;51.22;25.45;;;;;;;7.50;69.27;100650.88;10264928;28;20619;-74
2021/04/20 02:51:50;;;;;;;53.72;24.27;;;;;;;7.57;69.25;100652.22;10265621;28;20243;-73
2021/04/20 02:56:54;;;;;;;54.83;25.55;;;;;;;7.64;69.40;100655.34;10271884;28;20240;-74
2021/04/20 03:01:59;;;;;;;51.55;24.17;;;;;;;7.58;69.86;100639.69;10280702;28;20948;-74
2021/04/20 03:07:01;;;;;;;53.20;24.67;;;;;;;7.61;70.06;100626.97;10271049;28;20402;-74
2021/04/20 03:12:05;;;;;;;46.40;22.33;;;;;;;7.45;69.89;100631.59;10274021;28;20728;-74
2021/04/20 03:17:07;;;;;;;54.45;24.50;;;;;;;7.39;69.99;100632.84;10300402;28;21746;-74
2021/04/20 03:22:11;;;;;;;51.75;24.40;;;;;;;7.42;69.95;100629.13;10311736;28;20247;-74
2021/04/20 03:27:14;;;;;;;51.97;24.95;;;;;;;7.35;69.87;100631.34;10308922;28;20254;-74
2021/04/20 03:32:16;;;;;;;56.47;25.67;;;;;;;7.34;70.19;100631.44;10312988;28;20241;-74
2021/04/20 03:37:24;;;;;;;58.28;27.00;;;;;;;7.38;70.29;100627.63;10307849;28;20724;-75
2021/04/20 03:42:32;;;;;;;60.67;29.25;;;;;;;7.44;70.10;100625.41;10311455;28;20235;-74
2021/04/20 03:47:38;;;;;;;62.65;27.33;;;;;;;7.43;70.28;100629.03;10327268;28;20235;-74
2021/04/20 03:52:45;;;;;;;65.55;29.63;;;;;;;7.37;70.17;100618.72;10325485;28;20238;-75
2021/04/20 03:57:49;;;;;;;63.72;28.60;;;;;;;7.29;71.07;100621.03;10310480;28;20242;-75
2021/04/20 04:02:53;;;;;;;70.88;31.35;;;;;;;7.26;71.46;100622.06;10310170;28;20327;-75
2021/04/20 04:07:57;;;;;;;68.13;29.65;;;;;;;7.35;71.20;100617.09;10310608;28;20246;-75
2021/04/20 04:13:03;;;;;;;59.50;28.25;;;;;;;7.22;70.92;100623.25;10310888;28;20231;-74
2021/04/20 04:18:10;;;;;;;61.50;27.33;;;;;;;7.11;70.88;100622.22;10272906;28;20244;-74
2021/04/20 04:23:15;;;;;;;70.80;31.08;;;;;;;7.11;70.86;100619.53;10269901;28;21089;-72
2021/04/20 04:28:21;;;;;;;65.70;28.67;;;;;;;7.00;71.31;100618.38;10268621;28;20235;-74
2021/04/20 04:33:25;;;;;;;60.92;28.00;;;;;;;7.05;71.65;100616.28;10267955;28;20235;-74
2021/04/20 04:38:28;;;;;;;64.57;29.85;;;;;;;7.14;71.45;100622.88;10283731;28;20251;-74
2021/04/20 04:43:31;;;;;;;65.97;28.92;;;;;;;7.10;71.10;100624.00;10270804;28;20246;-74
2021/04/20 04:48:33;;;;;;;70.43;31.00;;;;;;;7.25;71.23;100622.19;10268178;28;20321;-75
2021/04/20 04:53:38;;;;;;;60.53;28.58;;;;;;;7.26;70.79;100618.56;10268732;28;20366;-74
2021/04/20 04:58:42;;;;;;;67.00;29.35;;;;;;;7.27;70.60;100614.94;10309016;28;20243;-74
2021/04/20 05:03:45;;;;;;;63.25;28.90;;;;;;;7.34;70.71;100618.06;10308578;28;20230;-74
2021/04/20 05:08:47;;;;;;;64.72;29.25;;;;;;;7.44;70.71;100621.88;10306980;28;20235;-74
2021/04/20 05:13:50;;;;;;;64.97;30.50;;;;;;;7.37;70.49;100626.75;10314499;28;20222;-75
2021/04/20 05:18:52;;;;;;;60.55;27.50;;;;;;;7.54;70.15;100627.47;10346514;28;20242;-73
2021/04/20 05:23:54;;;;;;;62.97;28.40;;;;;;;7.50;69.81;100640.19;10346622;28;20230;-74
2021/04/20 05:28:58;;;;;;;59.55;26.98;;;;;;;7.48;70.00;100618.88;10348319;28;20265;-74
2021/04/20 05:34:01;;;;;;;61.60;28.27;;;;;;;7.56;70.06;100626.41;10346562;28;20702;-74
2021/04/20 05:39:06;;;;;;;57.15;25.77;;;;;;;7.69;69.64;100624.66;10346776;28;20594;-74
2021/04/20 05:44:10;;;;;;;50.50;25.58;;;;;;;7.78;69.17;100627.69;10347716;28;20222;-74
2021/04/20 05:49:12;;;;;;;26.40;13.85;;;;;;;7.86;68.95;100617.34;10345808;28;20234;-73
2021/04/20 05:54:15;;;;;;;43.55;22.70;;;;;;;8.04;68.64;100621.50;10346278;28;20234;-74
2021/04/20 05:59:19;;;;;;;42.55;22.63;;;;;;;8.34;67.91;100615.03;10345239;28;20246;-74
2021/04/20 06:04:21;;;;;;;54.08;26.95;;;;;;;8.56;67.52;100611.78;10348673;28;20756;-74
2021/04/20 06:09:23;;;;;;;52.47;26.67;;;;;;;9.02;66.64;100622.81;10345759;28;20234;-74
2021/04/20 06:14:26;;;;;;;44.55;24.65;;;;;;;9.46;66.27;100617.88;10335910;28;20231;-74
2021/04/20 06:19:28;;;;;;;45.88;24.58;;;;;;;9.72;65.26;100624.03;10304884;28;20246;-74
2021/04/20 06:24:31;;;;;;;41.95;22.63;;;;;;;10.09;65.07;100619.53;10305037;28;20254;-74
2021/04/20 06:29:34;;;;;;;44.85;24.08;;;;;;;10.14;64.45;100621.84;10308285;28;20234;-74
2021/04/20 06:34:37;;;;;;;48.65;26.65;;;;;;;10.26;64.90;100622.75;10314130;28;20246;-75
2021/04/20 06:39:39;;;;;;;54.65;27.77;;;;;;;10.34;63.96;100626.56;10312753;28;20739;-76
2021/04/20 06:44:49;;;;;;;45.60;25.42;;;;;;;10.42;63.22;100627.78;10312410;28;20231;-75
2021/04/20 06:49:53;;;;;;;55.22;27.42;;;;;;;10.34;63.19;100620.34;10311560;28;20235;-75
2021/04/20 06:55:03;;;;;;;51.28;24.55;;;;;;;10.45;63.65;100619.50;10312096;28;20227;-74
2021/04/20 07:00:11;;;;;;;54.60;26.25;;;;;;;10.72;62.83;100622.72;10313176;28;20236;-75
2021/04/20 07:05:20;;;;;;;54.70;26.13;;;;;;;11.29;61.38;100623.66;10311774;28;20227;-75
2021/04/20 07:10:26;;;;;;;54.95;26.88;;;;;;;11.24;60.72;100621.34;10313879;28;20241;-75
2021/04/20 07:15:30;;;;;;;54.42;27.58;;;;;;;11.61;60.87;100623.75;10301945;28;20231;-74
2021/04/20 07:20:42;;;;;;;54.90;26.52;;;;;;;11.68;59.43;100624.09;10316001;28;20247;-76
2021/04/20 07:25:58;;;;;;;52.70;25.52;;;;;;;12.00;59.06;100607.97;10322259;28;21768;-75
2021/04/20 07:31:12;;;;;;;47.00;25.25;;;;;;;12.78;58.46;100608.56;10350998;28;20233;-74
2021/04/20 07:36:21;;;;;;;50.83;25.27;;;;;;;13.01;56.18;100611.97;10314785;28;20273;-75
2021/04/20 07:41:30;;;;;;;53.72;25.70;;;;;;;12.82;57.16;100610.00;10269328;28;20244;-75
2021/04/20 07:46:39;;;;;;;46.75;25.50;;;;;;;13.58;56.87;100620.44;10269280;28;20574;-74
2021/04/20 07:51:51;;;;;;;46.05;24.52;;;;;;;14.04;55.37;100613.53;10270596;28;20244;-76
2021/04/20 07:57:01;;;;;;;50.67;25.60;;;;;;;14.48;55.46;100605.88;10269698;28;20242;-74
2021/04/20 08:02:18;;;;;;;44.88;24.63;;;;;;;14.12;55.15;100610.97;10271369;28;20286;-74
2021/04/20 08:07:30;;;;;;;43.10;23.50;;;;;;;14.41;54.36;100604.75;10275224;28;20231;-76
2021/04/20 08:12:37;;;;;;;50.08;26.25;;;;;;;15.23;53.20;100606.81;10281589;28;20231;-77
2021/04/20 08:17:46;;;;;;;42.47;23.63;;;;;;;14.99;52.76;100605.47;10305354;28;20246;-77
2021/04/20 08:22:50;;;;;;;48.22;24.00;;;;;;;15.23;51.44;100602.22;10303341;28;20712;-77
2021/04/20 08:27:59;;;;;;;45.95;25.23;;;;;;;15.95;52.00;100601.56;10304049;28;20440;-77
2021/04/20 08:33:08;;;;;;;43.03;24.15;;;;;;;16.27;49.13;100588.34;10306504;28;20252;-76
2021/04/20 08:38:26;;;;;;;46.78;25.58;;;;;;;16.07;49.18;100589.47;10308936;28;20324;-77
2021/04/20 08:43:38;;;;;;;40.92;22.38;;;;;;;16.04;47.97;100587.91;10309772;28;20234;-77
2021/04/20 08:48:50;;;;;;;37.58;20.45;;;;;;;16.50;46.79;100583.25;10308418;28;20586;-77
2021/04/20 08:54:17;;;;;;;35.55;18.55;;;;;;;16.70;44.83;100577.63;10307345;28;20223;-77
2021/04/20 08:59:41;;;;;;;34.67;18.35;;;;;;;17.06;41.55;100585.63;10305492;28;20243;-77
2021/04/20 09:05:14;;;;;;;30.70;17.45;;;;;;;16.52;41.65;100574.97;10291764;28;20238;-77
2021/04/20 09:10:18;;;;;;;27.13;15.75;;;;;;;17.59;40.30;100573.66;10278814;28;20239;-76
2021/04/20 09:15:20;;;;;;;28.10;15.63;;;;;;;17.09;41.01;100569.03;10306025;28;20430;-77
2021/04/20 09:20:37;;;;;;;34.05;19.45;;;;;;;17.36;43.49;100566.13;10309178;28;20270;-77
2021/04/20 09:25:45;;;;;;;36.65;19.63;;;;;;;17.93;39.73;100571.69;10289964;28;20246;-77
2021/04/20 09:30:50;;;;;;;30.63;17.02;;;;;;;17.00;41.88;100574.44;10267975;28;21394;-76
2021/04/20 09:35:54;;;;;;;25.02;12.68;;;;;;;17.78;38.95;100572.53;10266097;28;20235;-77
2021/04/20 09:40:57;;;;;;;23.73;13.43;;;;;;;17.19;37.24;100564.34;10266937;28;20232;-76
2021/04/20 09:46:07;;;;;;;20.50;12.25;;;;;;;18.74;36.47;100566.44;10267206;28;20228;-77
2021/04/20 09:51:14;;;;;;;19.23;11.88;;;;;;;19.62;32.74;100560.00;10268765;28;20239;-76
2021/04/20 09:56:22;;;;;;;22.38;12.38;;;;;;;19.35;34.07;100564.88;10267550;28;20235;-77
2021/04/20 10:01:39;;;;;;;17.70;10.73;;;;;;;19.90;31.72;100566.63;10284424;28;20247;-76
2021/04/20 10:07:25;;;;;;;21.15;11.70;;;;;;;19.14;31.78;100551.88;10289639;28;20251;-76
2021/04/20 10:12:56;;;;;;;19.58;10.80;;;;;;;19.62;32.37;100555.41;10284034;28;20243;-77
2021/04/20 10:18:04;;;;;;;23.45;12.73;;;;;;;20.47;31.95;100554.44;10321930;28;20242;-76
2021/04/20 10:23:18;;;;;;;21.58;11.13;;;;;;;19.62;34.25;100549.94;10315472;28;20243;-76
2021/04/20 10:28:43;;;;;;;23.70;12.73;;;;;;;19.94;35.19;100541.72;10312895;28;20242;-76
2021/04/20 10:33:49;;;;;;;23.45;13.38;;;;;;;21.41;32.34;100540.22;10313773;28;20242;-76
2021/04/20 10:38:54;;;;;;;27.20;13.50;;;;;;;20.56;32.45;100527.91;10313837;28;20314;-77
2021/04/20 10:43:57;;;;;;;19.20;11.93;;;;;;;20.11;33.47;100522.34;10311698;28;20616;-77
2021/04/20 10:48:59;;;;;;;18.05;11.43;;;;;;;21.32;32.56;100525.00;10329173;28;20243;-77
2021/04/20 10:54:04;;;;;;;22.45;12.90;;;;;;;22.72;31.17;100521.72;10316016;28;20231;-77
2021/04/20 10:59:09;;;;;;;13.85;9.85;;;;;;;21.62;30.60;100512.09;10312668;28;20238;-77
2021/04/20 11:04:11;;;;;;;17.05;10.15;;;;;;;20.00;32.68;100505.56;10314229;28;20322;-77
2021/04/20 11:09:14;;;;;;;12.93;7.28;;;;;;;21.30;30.64;100508.78;10311820;28;20235;-77
2021/04/20 11:14:36;;;;;;;14.57;9.25;;;;;;;23.00;28.08;100502.47;10312497;28;20235;-77
2021/04/20 11:19:45;;;;;;;17.27;9.82;;;;;;;22.41;30.07;100503.78;10312455;28;20230;-77
2021/04/20 11:25:00;;;;;;;18.58;9.45;;;;;;;20.45;31.01;100495.63;10313025;28;20812;-77
2021/04/20 11:30:09;;;;;;;15.05;8.48;;;;;;;22.28;28.54;100484.53;10313085;28;20237;-77
2021/04/20 11:35:14;;;;;;;14.30;8.27;;;;;;;23.34;26.84;100493.41;10311319;28;20242;-77
2021/04/20 11:40:30;;;;;;;14.02;8.82;;;;;;;23.13;27.21;100482.56;10312367;28;20235;-76
2021/04/20 11:45:39;;;;;;;13.25;8.23;;;;;;;23.49;28.07;100478.66;10310083;28;20232;-76
2021/04/20 11:50:44;;;;;;;13.63;7.90;;;;;;;23.95;27.00;100470.53;10312254;28;20747;-77
2021/04/20 11:55:55;;;;;;;15.07;9.02;;;;;;;23.52;27.49;100468.13;10311305;28;20235;-77
2021/04/20 12:01:00;;;;;;;17.55;9.73;;;;;;;23.93;28.31;100469.91;10332370;28;20295;-77
2021/04/20 12:06:03;;;;;;;13.68;9.48;;;;;;;25.09;25.79;100466.53;10334798;28;20234;-76
2021/04/20 12:11:09;;;;;;;9.90;7.03;;;;;;;25.81;24.85;100460.88;10353605;28;20234;-77
2021/04/20 12:16:12;;;;;;;12.95;7.50;;;;;;;25.98;24.64;100458.41;10309499;28;20292;-76
2021/04/20 12:21:21;;;;;;;12.50;7.60;;;;;;;26.28;24.53;100462.19;10294892;28;20778;-76
2021/04/20 12:26:26;;;;;;;12.15;7.68;;;;;;;27.48;23.13;100457.19;10313524;28;20238;-76
2021/04/20 12:31:30;;;;;;;12.80;7.55;;;;;;;27.34;22.47;100460.13;10311284;28;20222;-76
2021/04/20 12:36:37;;;;;;;10.23;7.53;;;;;;;25.79;23.48;100455.59;10293744;28;20234;-76
2021/04/20 12:41:42;;;;;;;15.07;7.57;;;;;;;25.58;23.43;100453.16;10310185;28;20239;-77
2021/04/20 12:46:45;;;;;;;10.48;6.65;;;;;;;26.01;23.26;100444.19;10293297;28;20794;-78
2021/04/20 12:51:48;;;;;;;8.95;5.53;;;;;;;25.33;22.96;100440.19;10308370;28;20325;-77
2021/04/20 12:56:58;;;;;;;11.52;6.30;;;;;;;25.05;22.95;100445.22;10309623;28;20241;-77
2021/04/20 13:02:01;;;;;;;11.80;6.55;;;;;;;24.28;23.74;100428.50;10311679;28;20342;-76
2021/04/20 13:07:04;;;;;;;9.93;5.95;;;;;;;24.24;25.31;100428.06;10310679;28;21272;-77
2021/04/20 13:12:11;;;;;;;12.88;6.45;;;;;;;24.24;24.08;100419.00;10310226;28;20258;-76
2021/04/20 13:17:16;;;;;;;11.75;5.28;;;;;;;24.93;23.96;100412.06;10342079;28;20738;-77
2021/04/20 13:22:20;;;;;;;9.25;5.32;;;;;;;24.31;22.98;100406.13;10351146;28;20242;-77
2021/04/20 13:27:24;;;;;;;8.10;5.70;;;;;;;25.39;23.54;100403.56;10332965;28;20242;-77
2021/04/20 13:32:27;;;;;;;9.98;5.20;;;;;;;26.01;21.80;100398.25;10350021;28;20605;-77
2021/04/20 13:37:33;;;;;;;8.95;5.93;;;;;;;25.94;22.09;100393.88;10351659;28;20621;-77
2021/04/20 13:42:38;;;;;;;6.88;5.65;;;;;;;25.73;22.03;100393.22;10349924;28;20268;-77
2021/04/20 13:47:42;;;;;;;8.82;5.07;;;;;;;25.91;21.50;100383.31;10331567;28;20722;-76
2021/04/20 13:53:05;;;;;;;7.80;5.30;;;;;;;26.09;22.24;100386.13;10333298;28;20314;-75
2021/04/20 13:58:13;;;;;;;6.95;4.38;;;;;;;26.39;22.00;100382.66;10331914;28;20233;-77
2021/04/20 14:03:20;;;;;;;7.32;4.90;;;;;;;25.61;21.41;100364.72;10352871;28;20264;-77
2021/04/20 14:08:24;;;;;;;6.72;4.68;;;;;;;25.26;21.99;100362.44;10336050;28;20238;-76
2021/04/20 14:13:35;;;;;;;9.32;4.75;;;;;;;25.48;21.83;100353.81;10332779;28;20218;-77
2021/04/20 14:18:38;;;;;;;9.02;4.75;;;;;;;24.58;20.98;100357.50;10311465;28;20242;-77
2021/04/20 14:23:43;;;;;;;9.73;6.03;;;;;;;23.51;23.73;100345.81;10311902;28;20284;-77
2021/04/20 14:28:48;;;;;;;9.25;4.90;;;;;;;24.85;23.06;100346.38;10321907;28;20234;-76
2021/04/20 14:33:56;;;;;;;7.05;4.45;;;;;;;25.65;21.78;100343.16;10295343;28;20605;-77
2021/04/20 14:39:06;;;;;;;5.97;4.38;;;;;;;25.19;21.93;100331.41;10310607;28;20370;-77
2021/04/20 14:44:17;;;;;;;8.00;5.00;;;;;;;25.58;22.27;100338.50;10310986;28;20242;-76
2021/04/20 14:49:25;;;;;;;10.30;4.95;;;;;;;25.85;21.76;100328.13;10291326;28;20249;-77
2021/04/20 14:54:29;;;;;;;8.13;5.75;;;;;;;25.68;21.71;100327.03;10318249;28;20277;-76
2021/04/20 14:59:35;;;;;;;12.38;5.32;;;;;;;24.94;22.83;100326.69;10315095;28;20242;-75
2021/04/20 15:04:38;;;;;;;8.95;5.68;;;;;;;24.42;23.34;100325.88;10318440;28;20235;-76
2021/04/20 15:09:45;;;;;;;7.15;6.28;;;;;;;25.43;22.93;100335.25;10313884;28;20617;-76
2021/04/20 15:14:56;;;;;;;8.05;6.60;;;;;;;25.00;22.76;100324.13;10326153;28;20226;-76
2021/04/20 15:19:59;;;;;;;10.73;6.40;;;;;;;24.65;23.54;100325.34;10356467;28;20234;-77
2021/04/20 15:25:05;;;;;;;8.07;6.43;;;;;;;25.01;23.26;100315.63;10352737;28;20234;-76
2021/04/20 15:30:14;;;;;;;11.50;6.30;;;;;;;25.55;22.92;100316.13;10335701;28;20234;-76
2021/04/20 15:35:27;;;;;;;10.07;7.20;;;;;;;25.29;23.37;100318.03;10351678;28;20241;-76
2021/04/20 15:40:30;;;;;;;11.05;7.70;;;;;;;25.34;23.43;100317.34;10330346;28;20267;-76
2021/04/20 15:45:37;;;;;;;11.52;7.68;;;;;;;24.94;22.38;100321.19;10301081;28;20236;-76
2021/04/20 15:50:43;;;;;;;12.13;7.85;;;;;;;23.94;23.63;100309.72;10310648;28;21520;-76
2021/04/20 15:55:45;;;;;;;13.52;7.82;;;;;;;24.42;24.55;100314.06;10311881;28;20251;-76
2021/04/20 16:00:52;;;;;;;9.45;6.80;;;;;;;24.17;24.11;100311.16;10296276;28;20235;-76
2021/04/20 16:06:01;;;;;;;11.02;6.85;;;;;;;24.37;24.08;100308.34;10297277;28;20234;-76
2021/04/20 16:11:05;;;;;;;12.73;7.05;;;;;;;24.23;23.66;100302.91;10310334;28;20397;-75
2021/04/20 16:16:20;;;;;;;10.70;7.22;;;;;;;23.90;24.04;100300.25;10334477;28;20277;-76
2021/04/20 16:21:24;;;;;;;9.75;6.90;;;;;;;24.19;24.18;100295.31;10351833;28;20237;-75
2021/04/20 16:26:30;;;;;;;10.30;6.78;;;;;;;23.68;24.60;100294.16;10349738;28;21874;-76
2021/04/20 16:31:36;;;;;;;9.35;6.68;;;;;;;23.59;24.92;100299.00;10322030;28;20227;-76
2021/04/20 16:36:51;;;;;;;10.20;7.00;;;;;;;23.20;25.56;100295.22;10292715;28;20374;-77
2021/04/20 16:42:02;;;;;;;10.90;6.60;;;;;;;23.10;25.22;100292.00;10294089;28;21383;-76
2021/04/20 16:47:24;;;;;;;8.70;6.03;;;;;;;23.19;24.50;100284.47;10292971;28;20231;-74
2021/04/20 16:52:36;;;;;;;8.05;5.55;;;;;;;22.76;24.32;100285.66;10277838;28;20277;-75
2021/04/20 16:58:15;;;;;;;8.13;5.57;;;;;;;22.48;24.61;100282.19;10270413;28;20246;-75
2021/04/20 17:03:44;;;;;;;6.90;5.55;;;;;;;22.36;24.26;100284.63;10273058;28;20240;-75
2021/04/20 17:09:16;;;;;;;7.43;5.43;;;;;;;22.12;25.38;100291.47;10272303;28;21938;-75
2021/04/20 17:14:38;;;;;;;9.95;5.78;;;;;;;21.86;24.75;100290.28;10290919;28;20234;-74
2021/04/20 17:20:33;;;;;;;8.18;5.68;;;;;;;22.01;26.03;100283.84;10308988;28;20235;-76
2021/04/20 17:25:39;;;;;;;6.07;5.22;;;;;;;23.21;23.83;100290.59;10258280;28;20256;-76
2021/04/20 17:30:58;;;;;;;7.90;4.93;;;;;;;22.88;23.73;100288.63;10199127;28;20265;-76
2021/04/20 17:36:14;;;;;;;9.40;5.53;;;;;;;21.16;25.87;100289.28;10175889;28;20244;-76
2021/04/20 17:41:23;;;;;;;9.68;5.13;;;;;;;19.86;27.45;100294.63;10134451;28;20239;-77
2021/04/20 17:46:34;;;;;;;9.10;5.10;;;;;;;19.11;28.53;100293.56;10158603;28;20243;-77
2021/04/20 17:51:55;;;;;;;9.52;5.70;;;;;;;18.47;29.00;100299.25;10184173;28;20291;-76
2021/04/20 17:57:07;;;;;;;7.40;4.85;;;;;;;18.05;29.88;100305.06;10179761;28;20249;-75
2021/04/20 18:02:22;;;;;;;7.78;5.28;;;;;;;17.59;30.26;100312.94;10181173;28;20259;-77
2021/04/20 18:07:39;;;;;;;10.05;6.13;;;;;;;17.21;30.50;100315.31;10199068;28;20243;-77
2021/04/20 18:13:05;;;;;;;9.45;6.60;;;;;;;16.95;31.03;100312.72;10179658;28;20239;-77
2021/04/20 18:18:14;;;;;;;7.90;6.28;;;;;;;16.69;31.07;100315.56;10164727;28;20232;-77
2021/04/20 18:23:50;;;;;;;12.35;7.95;;;;;;;16.49;31.66;100312.31;10157901;28;21478;-77
2021/04/20 18:29:07;;;;;;;9.52;6.38;;;;;;;16.25;31.92;100319.28;10147783;28;20231;-75
2021/04/20 18:34:18;;;;;;;10.20;6.50;;;;;;;16.05;32.20;100328.69;10158302;28;20252;-76
2021/04/20 18:39:31;;;;;;;10.25;6.18;;;;;;;15.87;32.70;100326.03;10149202;28;20487;-76
2021/04/20 18:44:40;;;;;;;9.85;6.03;;;;;;;15.64;32.90;100325.72;10155683;28;20243;-77
2021/04/20 18:49:49;;;;;;;8.07;5.65;;;;;;;15.51;33.26;100330.72;10137770;28;20257;-77
2021/04/20 18:55:11;;;;;;;8.45;5.68;;;;;;;15.33;33.31;100339.69;10145949;28;20223;-76
2021/04/20 19:00:15;;;;;;;10.70;5.90;;;;;;;15.21;33.52;100341.75;10174299;28;20256;-76
2021/04/20 19:05:47;;;;;;;9.65;5.95;;;;;;;15.05;34.20;100344.31;10153833;28;20231;-75
2021/04/20 19:10:55;;;;;;;8.38;5.18;;;;;;;14.87;34.27;100357.00;10152680;28;20644;-76
2021/04/20 19:16:23;;;;;;;7.50;5.50;;;;;;;14.71;34.48;100360.38;10148670;28;21451;-75
2021/04/20 19:21:34;;;;;;;8.48;5.72;;;;;;;14.54;34.60;100362.03;10139592;28;20322;-76
2021/04/20 19:26:58;;;;;;;8.43;6.43;;;;;;;14.33;35.35;100371.19;10146338;28;20244;-74
2021/04/20 19:32:05;;;;;;;8.48;6.10;;;;;;;14.31;35.25;100362.38;10147508;28;20244;-75
2021/04/20 19:37:13;;;;;;;12.65;6.05;;;;;;;14.29;35.33;100366.22;10145406;28;20246;-76
2021/04/20 19:42:23;;;;;;;8.52;6.18;;;;;;;14.23;35.66;100366.84;10149572;28;20254;-76
2021/04/20 19:47:28;;;;;;;8.68;6.28;;;;;;;14.12;35.67;100374.16;10147829;28;20227;-75
2021/04/20 19:52:37;;;;;;;10.50;6.88;;;;;;;14.09;35.41;100369.00;10171930;28;20239;-75
2021/04/20 19:57:42;;;;;;;10.27;7.00;;;;;;;14.02;36.36;100375.16;10135884;28;20709;-75
2021/04/20 20:02:44;;;;;;;9.15;7.03;;;;;;;13.87;36.13;100372.06;10124212;28;20241;-75
2021/04/20 20:07:53;;;;;;;10.18;7.10;;;;;;;13.69;36.54;100366.59;10130516;28;20236;-73
2021/04/20 20:12:58;;;;;;;11.07;7.30;;;;;;;13.50;37.33;100362.06;10139610;28;20237;-74
2021/04/20 20:18:02;;;;;;;10.30;6.90;;;;;;;13.38;37.59;100369.44;10183924;28;20245;-74
2021/04/20 20:23:07;;;;;;;13.73;8.07;;;;;;;13.32;37.52;100361.03;10184492;28;20246;-73
2021/04/20 20:28:14;;;;;;;13.20;7.82;;;;;;;13.29;38.40;100367.56;10128094;28;20247;-73
2021/04/20 20:33:17;;;;;;;12.43;8.05;;;;;;;13.23;38.90;100363.59;10112890;28;20261;-74
2021/04/20 20:38:21;;;;;;;10.27;7.35;;;;;;;13.15;38.95;100368.00;10112484;28;20272;-74
2021/04/20 20:43:27;;;;;;;11.15;7.55;;;;;;;13.00;38.82;100360.34;10145457;28;20270;-74
2021/04/20 20:48:32;;;;;;;10.60;8.10;;;;;;;12.88;39.45;100368.69;10145997;28;20343;-74
2021/04/20 20:53:36;;;;;;;15.98;8.45;;;;;;;12.76;40.04;100371.50;10145588;28;20243;-73
2021/04/20 20:58:44;;;;;;;11.52;8.82;;;;;;;12.71;40.52;100376.47;10146601;28;20621;-74
2021/04/20 21:03:52;;;;;;;12.18;8.32;;;;;;;12.55;40.99;100374.28;10114063;28;20232;-75
2021/04/20 21:08:55;;;;;;;12.10;8.30;;;;;;;12.23;40.50;100373.56;10099744;28;20251;-73
2021/04/20 21:14:00;;;;;;;11.35;8.00;;;;;;;12.02;40.32;100377.16;10114630;28;20230;-75
2021/04/20 21:19:11;;;;;;;12.07;7.68;;;;;;;11.75;41.21;100374.19;10182928;28;20749;-74
2021/04/20 21:24:20;;;;;;;13.80;8.50;;;;;;;11.65;41.72;100369.56;10183142;28;20248;-73
2021/04/20 21:29:28;;;;;;;14.05;8.75;;;;;;;11.65;42.32;100376.81;10184610;28;20239;-72
2021/04/20 21:34:34;;;;;;;15.02;9.05;;;;;;;11.48;43.05;100381.78;10186609;28;20244;-74
2021/04/20 21:39:37;;;;;;;15.18;9.07;;;;;;;11.26;43.13;100388.13;10182126;28;20246;-73
2021/04/20 21:44:43;;;;;;;16.80;10.47;;;;;;;11.26;42.73;100381.91;10183793;28;20236;-74
2021/04/20 21:49:54;;;;;;;15.98;9.90;;;;;;;11.32;41.98;100384.06;10234530;28;20235;-73
2021/04/20 21:55:01;;;;;;;13.93;9.30;;;;;;;11.37;42.30;100379.16;10232506;28;20716;-74
2021/04/20 22:00:11;;;;;;;14.55;9.15;;;;;;;11.20;41.74;100385.09;10308586;28;20700;-73
2021/04/20 22:05:16;;;;;;;12.82;8.55;;;;;;;11.14;42.25;100381.09;10308959;28;20680;-73
2021/04/20 22:10:27;;;;;;;14.00;8.40;;;;;;;10.98;42.46;100380.63;10305496;28;20245;-73
2021/04/20 22:15:35;;;;;;;12.18;8.18;;;;;;;11.04;42.25;100375.59;10289012;28;20243;-73
2021/04/20 22:20:37;;;;;;;12.93;7.68;;;;;;;11.08;42.08;100373.53;10267333;28;20293;-74
2021/04/20 22:25:42;;;;;;;13.30;8.55;;;;;;;11.03;42.03;100383.78;10266524;28;20361;-73
2021/04/20 22:30:47;;;;;;;12.15;8.60;;;;;;;10.86;42.52;100389.69;10266886;28;20243;-73
2021/04/20 22:36:01;;;;;;;13.18;8.60;;;;;;;10.73;42.46;100389.88;10266583;28;20257;-73
2021/04/20 22:41:11;;;;;;;11.32;8.38;;;;;;;10.64;42.94;100394.16;10268053;28;20290;-73
2021/04/20 22:46:20;;;;;;;12.70;8.15;;;;;;;10.57;43.26;100399.16;10267166;28;20239;-73
2021/04/20 22:51:23;;;;;;;14.60;8.05;;;;;;;10.53;42.95;100402.19;10267258;28;20235;-73
2021/04/20 22:56:25;;;;;;;14.07;7.18;;;;;;;10.51;43.32;100410.41;10280109;28;20709;-73
2021/04/20 23:01:33;;;;;;;10.18;7.20;;;;;;;10.56;43.01;100407.34;10263065;28;20732;-73
2021/04/20 23:06:37;;;;;;;12.55;6.82;;;;;;;10.63;42.67;100410.38;10265317;28;20231;-72
2021/04/20 23:11:44;;;;;;;14.07;7.47;;;;;;;10.47;42.71;100413.44;10269279;28;20232;-72
2021/04/20 23:16:49;;;;;;;13.60;7.68;;;;;;;10.33;42.91;100409.19;10300851;28;20243;-73
2021/04/20 23:21:58;;;;;;;14.35;8.25;;;;;;;9.86;43.76;100403.03;10312802;28;20251;-72